Time;durP1;ratioP1;P1;durP2;ratioP2;P2;SDS_P1;SDS_P2;PMS_P1;PMS_P2;Temp;Humidity;BMP_temperature;BMP_pressure;BME280_temperature;BME280_humidity;BME280_pressure;Samples;Min_cycle;Max_cycle;Signal;HPM_P1;HPM_P2
2022/05/25 00:01:34;;;;;;;6.07;5.38;;;;;;;11.68;78.56;101003.91;3578899;40;20088;-64
2022/05/25 00:04:01;;;;;;;7.85;5.40;;;;;;;11.70;78.46;101003.81;3582248;40;20083;-64
2022/05/25 00:06:28;;;;;;;6.78;6.10;;;;;;;11.65;78.79;101000.56;3579891;40;20125;-63
2022/05/25 00:08:54;;;;;;;7.00;5.70;;;;;;;11.70;79.32;101012.75;3580361;40;20092;-64
2022/05/25 00:11:20;;;;;;;6.95;6.03;;;;;;;11.68;78.86;101003.91;3582610;40;20044;-63
2022/05/25 00:13:46;;;;;;;8.23;6.63;;;;;;;11.63;79.44;101014.97;3580571;40;20067;-64
2022/05/25 00:16:12;;;;;;;7.68;6.65;;;;;;;11.61;79.32;101014.22;3577639;40;20048;-63
2022/05/25 00:19:58;;;;;;;6.95;6.00;;;;;;;11.59;78.68;101015.25;3578441;40;20079;-62
2022/05/25 00:21:24;;;;;;;7.80;6.63;;;;;;;11.55;79.67;101019.13;3579581;40;20311;-64
2022/05/25 00:23:50;;;;;;;11.30;7.50;;;;;;;11.53;79.57;101015.66;3580404;40;20075;-63
2022/05/25 00:26:15;;;;;;;12.13;7.40;;;;;;;11.51;80.11;101017.56;3579680;40;20068;-63
2022/05/25 00:28:41;;;;;;;9.50;7.18;;;;;;;11.49;79.98;101016.81;3579478;40;20125;-63
2022/05/25 00:31:08;;;;;;;9.40;7.50;;;;;;;11.46;79.46;101019.69;3579787;40;20428;-64
2022/05/25 00:33:34;;;;;;;10.30;7.90;;;;;;;11.42;80.37;101023.50;3579546;40;20055;-63
2022/05/25 00:36:00;;;;;;;11.18;7.53;;;;;;;11.39;79.33;101028.16;3580228;40;20374;-63
2022/05/25 00:38:26;;;;;;;8.95;8.05;;;;;;;11.36;79.99;101022.09;3580393;40;22403;-63
2022/05/25 00:40:52;;;;;;;8.68;7.85;;;;;;;11.26;80.40;101019.09;3577175;40;20056;-65
2022/05/25 00:43:18;;;;;;;9.63;8.57;;;;;;;11.29;80.50;101018.91;3577597;40;20369;-65
2022/05/25 00:46:00;;;;;;;11.15;8.55;;;;;;;11.27;80.20;101028.91;3579389;40;20105;-64
2022/05/25 00:49:12;;;;;;;11.75;8.25;;;;;;;11.09;80.74;101006.66;3579927;40;20086;-64
2022/05/25 00:51:49;;;;;;;11.25;9.15;;;;;;;11.22;81.42;101031.00;3576990;40;20556;-63
2022/05/25 00:54:23;;;;;;;10.23;8.48;;;;;;;11.20;81.00;101024.88;3579820;40;20059;-63
2022/05/25 00:56:55;;;;;;;12.02;8.75;;;;;;;11.25;81.88;101038.88;3580297;40;20064;-64
2022/05/25 00:59:33;;;;;;;9.32;8.43;;;;;;;11.26;81.22;101040.63;3579074;40;20100;-64
2022/05/25 01:02:00;;;;;;;9.55;8.65;;;;;;;11.27;80.84;101033.41;3578419;40;20057;-63
2022/05/25 01:04:26;;;;;;;13.10;8.68;;;;;;;11.29;81.40;101040.44;3582246;40;20048;-63
2022/05/25 01:07:04;;;;;;;11.48;8.63;;;;;;;11.26;80.03;101040.63;3580342;40;20066;-64
2022/05/25 01:10:07;;;;;;;11.55;8.25;;;;;;;11.23;81.00;101045.34;3579004;40;20048;-64
2022/05/25 01:13:03;;;;;;;10.02;8.88;;;;;;;11.21;81.13;101048.09;3578736;40;20048;-64
2022/05/25 01:15:46;;;;;;;11.52;9.02;;;;;;;11.18;81.57;101056.38;3578277;40;20067;-62
2022/05/25 01:18:33;;;;;;;13.05;9.02;;;;;;;11.12;80.86;101044.16;3580804;40;20110;-64
2022/05/25 01:21:16;;;;;;;10.30;9.07;;;;;;;11.14;80.93;101047.63;3578628;40;20064;-63
2022/05/25 01:24:12;;;;;;;11.65;9.43;;;;;;;11.12;81.39;101046.84;3579371;40;20094;-63
2022/05/25 01:26:54;;;;;;;9.45;8.18;;;;;;;11.11;81.32;101052.31;3578948;40;20049;-64
2022/05/25 01:29:45;;;;;;;9.82;8.60;;;;;;;11.09;81.37;101047.03;3582513;40;20410;-63
2022/05/25 01:32:20;;;;;;;9.98;8.60;;;;;;;11.07;81.35;101051.66;3583378;40;20052;-64
2022/05/25 01:35:07;;;;;;;14.25;12.02;;;;;;;11.08;81.23;101052.50;3581956;40;20079;-64
2022/05/25 01:38:08;;;;;;;14.77;11.43;;;;;;;11.08;81.25;101056.06;3582754;40;20049;-63
2022/05/25 01:40:50;;;;;;;10.10;9.18;;;;;;;11.05;80.76;101063.44;3583333;40;20052;-63
2022/05/25 01:43:57;;;;;;;11.10;9.43;;;;;;;11.01;81.25;101052.00;3580956;40;20052;-63
2022/05/25 01:46:50;;;;;;;13.40;9.38;;;;;;;10.99;81.01;101053.06;3581047;40;20052;-64
2022/05/25 01:49:28;;;;;;;12.63;8.88;;;;;;;10.98;81.56;101057.59;3582361;40;20431;-63
2022/05/25 01:52:08;;;;;;;10.90;9.13;;;;;;;10.93;80.88;101060.53;3580933;40;20381;-64
2022/05/25 01:54:48;;;;;;;10.70;9.15;;;;;;;10.95;80.43;101062.28;3582631;40;20040;-64
2022/05/25 01:57:18;;;;;;;11.90;9.73;;;;;;;10.90;80.82;101060.72;3583597;40;20060;-63
2022/05/25 01:59:44;;;;;;;10.63;8.95;;;;;;;10.90;80.94;101062.53;3582898;40;20084;-63
2022/05/25 02:05:04;;;;;;;10.50;9.20;;;;;;;10.87;81.56;101060.03;3583177;40;20564;-65
2022/05/25 02:07:56;;;;;;;;;;;;;;;10.86;81.28;101063.69;3582210;40;20062;-63
2022/05/25 02:11:08;;;;;;;12.68;8.98;;;;;;;10.84;81.61;101065.59;3583320;40;19946;-64
2022/05/25 02:14:14;;;;;;;10.55;9.38;;;;;;;10.82;80.52;101073.75;3580678;40;20340;-64
2022/05/25 02:17:21;;;;;;;12.23;9.65;;;;;;;10.80;81.75;101062.22;3580375;40;20056;-63
2022/05/25 02:20:21;;;;;;;10.23;9.18;;;;;;;10.68;81.36;101060.25;3580458;40;20785;-65
2022/05/25 02:23:02;;;;;;;12.35;9.73;;;;;;;10.74;82.17;101065.25;3582411;40;20056;-63
2022/05/25 02:25:44;;;;;;;12.77;11.45;;;;;;;10.72;81.00;101067.19;3582974;40;20091;-64
2022/05/25 02:28:30;;;;;;;10.27;9.10;;;;;;;10.73;81.54;101068.91;3584223;40;20479;-65
2022/05/25 02:31:01;;;;;;;11.57;9.68;;;;;;;10.73;81.75;101073.44;3583272;40;20052;-63
2022/05/25 02:33:42;;;;;;;11.02;9.80;;;;;;;10.73;81.76;101068.91;3582242;40;20096;-64
2022/05/25 02:36:11;;;;;;;10.63;8.73;;;;;;;10.75;81.13;101077.78;3583962;40;20056;-65
2022/05/25 02:38:42;;;;;;;12.57;9.32;;;;;;;10.74;80.76;101076.03;3582842;40;20263;-63
2022/05/25 02:41:32;;;;;;;14.80;8.85;;;;;;;10.76;81.72;101079.50;3579383;40;20064;-63
2022/05/25 02:44:01;;;;;;;11.52;8.75;;;;;;;10.78;81.29;101087.47;3584224;40;20085;-64
2022/05/25 02:46:27;;;;;;;14.50;8.90;;;;;;;10.76;81.00;101082.19;3582973;40;20052;-64
2022/05/25 02:48:56;;;;;;;11.10;9.27;;;;;;;10.75;80.19;101087.63;3582353;40;20068;-63
2022/05/25 02:51:21;;;;;;;11.57;9.07;;;;;;;10.73;80.35;101085.06;3579461;40;20130;-64
2022/05/25 02:53:47;;;;;;;10.88;8.95;;;;;;;10.59;80.66;101071.53;3580300;40;20059;-63
2022/05/25 02:56:13;;;;;;;9.57;8.52;;;;;;;10.54;80.68;101068.25;3581275;40;20092;-64
2022/05/25 02:58:38;;;;;;;9.95;8.63;;;;;;;10.69;80.50;101091.56;3580478;40;20068;-63
2022/05/25 03:01:05;;;;;;;12.05;8.60;;;;;;;10.67;80.42;101090.78;3580065;40;20135;-65
2022/05/25 03:03:36;;;;;;;11.85;8.23;;;;;;;10.67;80.47;101096.16;3579991;40;20053;-63
2022/05/25 03:06:07;;;;;;;11.48;8.10;;;;;;;10.66;80.89;101099.81;3581903;40;20353;-63
2022/05/25 03:08:35;;;;;;;10.32;7.80;;;;;;;10.53;80.49;101072.78;3580463;40;20049;-63
2022/05/25 03:11:02;;;;;;;10.68;7.95;;;;;;;10.63;80.14;101094.63;3579587;40;20092;-64
2022/05/25 03:13:28;;;;;;;10.60;7.80;;;;;;;10.60;80.88;101097.47;3579770;40;20084;-63
2022/05/25 03:15:58;;;;;;;12.65;8.63;;;;;;;10.55;80.42;101099.56;3581561;40;20913;-64
2022/05/25 03:18:24;;;;;;;9.88;7.88;;;;;;;10.56;80.19;101104.84;3580021;40;20056;-64
2022/05/25 03:20:50;;;;;;;13.75;8.57;;;;;;;10.56;80.59;101103.97;3577888;40;20754;-62
2022/05/25 03:23:20;;;;;;;13.85;8.93;;;;;;;10.53;80.28;101105.03;3582323;40;20450;-63
2022/05/25 03:25:47;;;;;;;12.40;8.60;;;;;;;10.46;80.51;101092.88;3579676;40;20037;-63
2022/05/25 03:28:14;;;;;;;9.60;7.43;;;;;;;10.47;80.51;101094.63;3580759;40;20439;-63
2022/05/25 03:30:46;;;;;;;8.10;7.28;;;;;;;10.36;80.68;101084.47;3579584;40;20082;-62
2022/05/25 03:33:11;;;;;;;10.60;8.00;;;;;;;10.46;80.88;101103.63;3581641;40;20117;-62
2022/05/25 03:35:37;;;;;;;11.35;7.63;;;;;;;10.45;80.25;101102.75;3579933;40;20077;-62
2022/05/25 03:38:04;;;;;;;9.30;7.57;;;;;;;10.44;80.98;101109.09;3581225;40;20136;-64
2022/05/25 03:40:31;;;;;;;11.95;7.72;;;;;;;10.45;80.92;101112.66;3581169;40;20064;-63
2022/05/25 03:42:57;;;;;;;11.25;7.75;;;;;;;10.47;80.09;101117.97;3580519;40;20060;-63
2022/05/25 03:45:23;;;;;;;10.85;8.35;;;;;;;10.40;80.50;101120.09;3582045;40;20403;-64
2022/05/25 03:47:49;;;;;;;10.80;7.05;;;;;;;10.45;80.14;101126.09;3582230;40;20122;-64
2022/05/25 03:50:18;;;;;;;8.23;7.43;;;;;;;10.39;80.58;101119.22;3582511;40;20060;-63
2022/05/25 03:52:44;;;;;;;8.48;6.95;;;;;;;10.43;80.00;101134.25;3580492;40;20302;-64
2022/05/25 03:55:10;;;;;;;10.23;7.05;;;;;;;10.43;80.59;101131.56;3580938;40;20096;-63
2022/05/25 03:57:36;;;;;;;12.10;6.90;;;;;;;10.42;81.17;101139.69;3580616;40;20050;-63
2022/05/25 04:00:05;;;;;;;15.20;7.70;;;;;;;10.36;81.28;101129.28;3582536;40;20068;-65
2022/05/25 04:02:30;;;;;;;10.80;6.57;;;;;;;10.35;80.66;101128.44;3582095;40;20052;-65
2022/05/25 04:05:18;;;;;;;8.77;6.70;;;;;;;10.39;80.29;101142.56;3578341;40;20070;-65
2022/05/25 04:07:48;;;;;;;10.35;6.90;;;;;;;10.25;81.38;101120.94;3577153;40;20100;-64
2022/05/25 04:10:19;;;;;;;12.75;6.63;;;;;;;10.39;80.59;101148.78;3580352;40;20060;-64
2022/05/25 04:12:46;;;;;;;8.27;6.72;;;;;;;10.28;81.01;101132.41;3579771;40;20390;-64
2022/05/25 04:15:23;;;;;;;7.70;7.00;;;;;;;10.38;81.02;101144.38;3579638;40;20060;-63
2022/05/25 04:17:50;;;;;;;11.75;6.32;;;;;;;10.39;80.76;101148.78;3578423;40;20060;-64
2022/05/25 04:20:18;;;;;;;9.27;6.82;;;;;;;10.40;80.83;101142.50;3579987;40;20133;-65
2022/05/25 04:22:44;;;;;;;7.80;6.18;;;;;;;10.40;81.04;101152.34;3580431;40;20063;-64
2022/05/25 04:25:15;;;;;;;9.48;5.97;;;;;;;10.42;81.09;101150.44;3577861;40;20361;-65
2022/05/25 04:27:44;;;;;;;12.07;6.55;;;;;;;10.49;81.12;101148.28;3578492;40;20052;-64
2022/05/25 04:30:15;;;;;;;11.27;6.53;;;;;;;10.55;81.55;101150.63;3578360;40;20055;-65
2022/05/25 04:32:41;;;;;;;7.00;6.07;;;;;;;10.58;81.38;101150.44;3578477;40;20060;-65
2022/05/25 04:35:08;;;;;;;6.70;5.93;;;;;;;10.59;81.21;101141.41;3579688;40;20044;-64
2022/05/25 04:37:49;;;;;;;8.77;6.18;;;;;;;10.62;80.76;101152.00;3581995;40;20068;-66
2022/05/25 04:40:28;;;;;;;11.90;7.20;;;;;;;10.64;81.31;101156.34;3584347;40;20442;-65
2022/05/25 04:42:56;;;;;;;8.43;5.97;;;;;;;10.67;80.75;101158.00;3582296;40;20053;-64
2022/05/25 04:45:25;;;;;;;8.70;5.70;;;;;;;10.69;81.00;101158.78;3581894;40;20060;-65
2022/05/25 04:47:52;;;;;;;7.53;5.90;;;;;;;10.72;80.48;101158.63;3580282;40;20288;-64
2022/05/25 04:50:21;;;;;;;9.80;5.60;;;;;;;10.74;80.42;101162.06;3581739;40;20096;-65
2022/05/25 04:52:47;;;;;;;12.77;6.38;;;;;;;10.78;80.67;101162.75;3577548;40;20409;-64
2022/05/25 04:58:02;;;;;;;10.00;5.65;;;;;;;10.70;80.74;101136.31;3580976;40;20113;-65
2022/05/25 05:00:29;;;;;;;10.73;5.60;;;;;;;10.88;80.60;101158.59;3582305;40;20264;-66
2022/05/25 05:02:55;;;;;;;9.32;5.93;;;;;;;10.92;80.10;101170.91;3578807;40;20064;-64
2022/05/25 05:05:21;;;;;;;7.45;5.60;;;;;;;10.97;80.60;101178.69;3581648;40;20121;-64
2022/05/25 05:07:47;;;;;;;7.30;5.68;;;;;;;11.02;79.80;101177.47;3581062;40;20060;-65
2022/05/25 05:10:13;;;;;;;8.70;5.70;;;;;;;11.05;79.86;101173.75;3581441;40;20063;-65
2022/05/25 05:12:41;;;;;;;12.30;5.82;;;;;;;11.10;79.94;101171.63;3582042;40;20060;-64
2022/05/25 05:15:07;;;;;;;8.48;5.47;;;;;;;11.03;79.93;101156.81;3581635;40;20118;-65
2022/05/25 05:17:33;;;;;;;8.43;5.47;;;;;;;11.24;80.05;101182.47;3580278;40;20052;-63
2022/05/25 05:19:59;;;;;;;9.85;5.60;;;;;;;11.27;79.88;101179.59;3580720;40;20540;-64
2022/05/25 05:22:24;;;;;;;11.27;5.55;;;;;;;11.31;79.39;101172.22;3579955;40;20303;-65
2022/05/25 05:24:50;;;;;;;9.32;5.38;;;;;;;11.34;79.22;101167.50;3576946;40;20141;-65
2022/05/25 05:27:16;;;;;;;10.55;4.88;;;;;;;11.38;78.81;101170.88;3582954;40;20111;-64
2022/05/25 05:29:43;;;;;;;9.77;5.03;;;;;;;11.44;79.11;101164.28;3580789;40;20048;-64
2022/05/25 05:32:10;;;;;;;8.10;5.35;;;;;;;11.48;79.09;101168.50;3580263;40;20142;-64
2022/05/25 05:34:37;;;;;;;11.40;5.30;;;;;;;11.50;78.88;101172.84;3581264;40;20291;-66
2022/05/25 05:37:15;;;;;;;6.80;5.47;;;;;;;11.56;78.63;101169.78;3581277;40;20044;-65
2022/05/25 05:39:48;;;;;;;7.80;5.30;;;;;;;11.62;78.87;101163.16;3580630;40;20088;-64
2022/05/25 05:42:19;;;;;;;9.73;5.85;;;;;;;11.69;78.95;101156.44;3580620;40;20134;-64
2022/05/25 05:45:28;;;;;;;10.13;5.47;;;;;;;11.76;78.34;101156.94;3579367;40;20063;-65
2022/05/25 05:48:09;;;;;;;11.93;5.45;;;;;;;11.58;78.03;101118.56;3578181;40;20060;-65
2022/05/25 05:50:39;;;;;;;9.55;6.03;;;;;;;11.87;77.65;101159.00;3581441;40;20057;-64
2022/05/25 05:53:09;;;;;;;8.50;5.22;;;;;;;12.04;77.73;101156.13;3581826;40;20107;-64
2022/05/25 05:55:36;;;;;;;8.95;5.20;;;;;;;12.23;76.49;101158.50;3579840;40;20055;-64
2022/05/25 05:58:03;;;;;;;8.52;5.50;;;;;;;12.38;76.39;101151.28;3581097;40;20165;-65
2022/05/25 06:00:29;;;;;;;10.27;5.43;;;;;;;12.47;75.81;101162.34;3581200;40;20052;-65
2022/05/25 06:02:55;;;;;;;9.52;5.10;;;;;;;12.49;75.88;101170.31;3580128;40;20062;-65
2022/05/25 06:05:21;;;;;;;8.48;5.20;;;;;;;12.51;75.54;101168.41;3580820;40;20068;-64
2022/05/25 06:07:46;;;;;;;9.73;5.93;;;;;;;12.57;76.03;101165.31;3581536;40;20056;-65
2022/05/25 06:10:12;;;;;;;9.02;5.80;;;;;;;12.63;75.78;101170.31;3581042;40;20306;-65
2022/05/25 06:12:37;;;;;;;8.05;5.47;;;;;;;12.80;75.68;101187.22;3581141;40;20162;-65
2022/05/25 06:20:35;;;;;;;7.53;5.50;;;;;;;13.16;73.66;101184.81;3581908;40;20129;-64
2022/05/25 06:23:01;;;;;;;10.18;5.53;;;;;;;13.22;73.85;101191.59;3581675;40;20063;-65
2022/05/25 06:25:27;;;;;;;9.77;5.50;;;;;;;13.23;73.48;101196.91;3583261;40;20054;-65
2022/05/25 06:27:54;;;;;;;8.05;6.05;;;;;;;13.35;73.53;101205.16;3582037;40;20057;-64
2022/05/25 06:30:20;;;;;;;9.02;5.97;;;;;;;13.44;73.33;101201.84;3583133;40;20071;-64
2022/05/25 06:32:45;;;;;;;8.10;5.70;;;;;;;13.55;72.99;101202.00;3581829;40;20071;-65
2022/05/25 06:35:11;;;;;;;9.82;5.70;;;;;;;13.11;72.44;101094.31;3581768;40;20068;-65
2022/05/25 06:37:37;;;;;;;9.52;6.05;;;;;;;13.80;72.12;101197.63;3581984;40;20071;-64
2022/05/25 06:40:03;;;;;;;8.10;5.85;;;;;;;13.96;72.10;101203.69;3582787;40;20044;-65
2022/05/25 06:42:29;;;;;;;11.40;6.32;;;;;;;14.07;71.23;101209.19;3581015;40;20299;-64
2022/05/25 06:44:54;;;;;;;13.23;8.05;;;;;;;14.14;70.76;101202.38;3581003;40;20062;-65
2022/05/25 06:47:21;;;;;;;11.40;7.85;;;;;;;14.02;70.94;101173.50;3582101;40;20056;-66
2022/05/25 06:49:46;;;;;;;12.30;7.80;;;;;;;14.32;70.24;101213.72;3582978;40;20056;-65
2022/05/25 06:52:15;;;;;;;12.32;7.97;;;;;;;14.38;70.30;101217.81;3583306;40;20050;-66
2022/05/25 06:54:42;;;;;;;14.10;7.72;;;;;;;14.36;69.73;101212.50;3584332;40;20692;-65
2022/05/25 06:57:08;;;;;;;10.52;8.48;;;;;;;14.39;70.19;101217.69;3584448;40;20056;-66
2022/05/25 06:59:33;;;;;;;10.88;8.73;;;;;;;14.42;70.02;101222.03;3581956;40;20408;-65
2022/05/25 07:01:59;;;;;;;13.93;9.10;;;;;;;13.96;69.92;101141.50;3584387;40;20120;-65
2022/05/25 07:04:24;;;;;;;9.85;8.25;;;;;;;14.52;70.58;101225.84;3581803;40;20055;-65
2022/05/25 07:06:50;;;;;;;12.10;8.32;;;;;;;14.63;70.05;101225.06;3580775;40;20133;-66
2022/05/25 07:09:16;;;;;;;11.80;8.05;;;;;;;14.71;69.96;101228.06;3583684;40;20386;-65
2022/05/25 07:11:42;;;;;;;12.63;7.30;;;;;;;14.79;69.14;101222.97;3582312;40;20275;-67
2022/05/25 07:14:09;;;;;;;10.75;7.75;;;;;;;14.89;69.23;101223.16;3583953;40;20052;-65
2022/05/25 07:16:36;;;;;;;11.93;7.88;;;;;;;14.99;68.13;101234.19;3583944;40;20052;-65
2022/05/25 07:19:03;;;;;;;12.57;8.52;;;;;;;14.88;68.29;101204.34;3584797;40;20055;-65
2022/05/25 07:21:33;;;;;;;11.80;8.57;;;;;;;15.09;68.09;101236.06;3584172;40;20099;-65
2022/05/25 07:24:00;;;;;;;10.80;8.35;;;;;;;15.00;66.79;101204.31;3584445;40;20048;-65
2022/05/25 07:26:30;;;;;;;11.13;8.25;;;;;;;15.27;67.15;101238.41;3582337;40;20043;-65
2022/05/25 07:28:56;;;;;;;13.77;8.43;;;;;;;15.35;67.05;101246.84;3584057;40;20068;-65
2022/05/25 07:31:37;;;;;;;11.48;8.60;;;;;;;15.38;66.48;101241.19;3583901;40;20056;-65
2022/05/25 07:34:30;;;;;;;9.82;8.20;;;;;;;15.56;66.71;101245.19;3584799;40;20052;-66
2022/05/25 07:37:02;;;;;;;14.65;8.35;;;;;;;15.82;66.08;101245.06;3580983;40;20107;-66
2022/05/25 07:39:36;;;;;;;12.95;8.13;;;;;;;16.17;65.09;101255.00;3583730;40;20044;-65
2022/05/25 07:42:05;;;;;;;9.80;7.35;;;;;;;16.45;64.07;101253.69;3583418;40;20129;-65
2022/05/25 07:44:39;;;;;;;12.23;7.20;;;;;;;16.60;62.76;101255.19;3584077;40;20066;-65
2022/05/25 07:47:05;;;;;;;8.48;6.45;;;;;;;16.81;62.41;101249.03;3584223;40;20063;-65
2022/05/25 07:49:31;;;;;;;9.75;6.10;;;;;;;16.92;62.79;101240.88;3583833;40;20272;-65
2022/05/25 07:51:57;;;;;;;7.90;6.40;;;;;;;17.15;61.97;101258.84;3584144;40;20067;-65
2022/05/25 07:54:23;;;;;;;11.13;6.00;;;;;;;17.25;62.37;101253.50;3585053;40;20096;-65
2022/05/25 07:56:50;;;;;;;9.98;5.45;;;;;;;17.35;59.98;101257.22;3585245;40;20063;-66
2022/05/25 07:59:16;;;;;;;7.05;5.00;;;;;;;17.37;59.68;101252.50;3583915;40;20048;-65
2022/05/25 08:07:38;;;;;;;7.35;4.05;;;;;;;17.26;59.60;101263.41;3585519;40;20047;-66
2022/05/25 08:10:18;;;;;;;6.82;4.20;;;;;;;17.21;59.99;101260.19;3585563;40;20052;-65
2022/05/25 08:12:46;;;;;;;8.75;4.20;;;;;;;17.20;59.41;101261.19;3584655;40;20086;-66
2022/05/25 08:15:14;;;;;;;7.85;4.10;;;;;;;17.13;59.40;101260.00;3584432;40;20310;-65
2022/05/25 08:17:40;;;;;;;8.00;4.20;;;;;;;17.26;59.86;101266.13;3585148;40;20052;-66
2022/05/25 08:20:07;;;;;;;11.55;4.07;;;;;;;17.58;59.64;101258.00;3584204;40;20060;-66
2022/05/25 08:22:33;;;;;;;20.50;4.18;;;;;;;18.00;59.17;101260.78;3583619;40;20055;-65
2022/05/25 08:25:00;;;;;;;6.45;3.78;;;;;;;18.17;57.51;101262.03;3583335;40;20424;-66
2022/05/25 08:27:25;;;;;;;7.55;3.80;;;;;;;18.36;57.77;101261.28;3581924;40;20052;-65
2022/05/25 08:29:51;;;;;;;6.70;3.58;;;;;;;18.65;56.10;101260.56;3583975;40;20072;-65
2022/05/25 08:32:17;;;;;;;6.38;3.40;;;;;;;18.91;55.04;101248.25;3583734;40;20138;-68
2022/05/25 08:34:43;;;;;;;8.10;3.65;;;;;;;18.95;53.31;101246.09;3590098;40;20079;-66
2022/05/25 08:37:09;;;;;;;6.55;3.13;;;;;;;19.12;53.20;101256.31;3582821;40;20048;-66
2022/05/25 08:39:35;;;;;;;6.63;3.20;;;;;;;19.13;53.35;101239.00;3582237;40;20118;-65
2022/05/25 08:42:08;;;;;;;6.32;3.00;;;;;;;19.37;53.22;101251.34;3584127;40;20056;-65
2022/05/25 08:44:36;;;;;;;5.10;2.67;;;;;;;19.58;52.43;101245.78;3583375;40;20394;-66
2022/05/25 08:47:08;;;;;;;7.13;2.92;;;;;;;19.65;52.84;101245.09;3582547;40;20055;-66
2022/05/25 08:49:37;;;;;;;6.30;3.00;;;;;;;19.91;52.07;101258.13;3583336;40;20044;-64
2022/05/25 08:52:14;;;;;;;3.92;2.53;;;;;;;;;;3579734;40;20064;-66
2022/05/25 08:54:39;;;;;;;9.90;2.75;;;;;;;20.01;49.77;101250.78;3582861;40;20318;-65
2022/05/25 08:57:24;;;;;;;6.10;2.47;;;;;;;19.86;49.11;101225.00;3583942;40;20044;-66
2022/05/25 09:00:06;;;;;;;5.93;2.60;;;;;;;19.94;48.27;101249.66;3583698;40;20372;-66
2022/05/25 09:02:58;;;;;;;4.30;2.30;;;;;;;19.95;48.10;101251.41;3582851;40;20044;-67
2022/05/25 09:05:53;;;;;;;3.95;2.65;;;;;;;19.70;49.86;101259.16;3581972;40;20062;-65
2022/05/25 09:08:45;;;;;;;4.28;2.13;;;;;;;19.70;49.27;101248.25;3584467;40;20053;-65
2022/05/25 09:11:38;;;;;;;6.00;2.60;;;;;;;19.97;48.62;101254.84;3581027;40;20055;-65
2022/05/25 09:14:24;;;;;;;5.57;2.40;;;;;;;20.28;49.08;101255.50;3585043;40;20303;-65
2022/05/25 09:16:57;;;;;;;3.47;2.20;;;;;;;20.75;46.86;101252.78;3583132;40;20064;-66
2022/05/25 09:19:34;;;;;;;6.15;2.38;;;;;;;20.67;46.70;101262.72;3584065;40;20116;-66
2022/05/25 09:22:19;;;;;;;3.38;1.88;;;;;;;20.64;46.46;101262.00;3584032;40;20456;-65
2022/05/25 09:24:49;;;;;;;7.30;2.97;;;;;;;20.27;45.20;101261.13;3582420;40;20060;-65
2022/05/25 09:27:20;;;;;;;4.40;1.92;;;;;;;20.18;46.77;101271.91;3583710;40;20409;-66
2022/05/25 09:29:45;;;;;;;6.35;2.13;;;;;;;20.17;44.30;101281.09;3583572;40;20057;-66
2022/05/25 09:32:52;;;;;;;3.75;1.60;;;;;;;20.17;44.19;101261.09;3582606;40;20121;-67
2022/05/25 09:35:28;;;;;;;4.78;1.48;;;;;;;20.39;44.50;101269.00;3567778;40;20096;-67
2022/05/25 09:38:05;;;;;;;5.05;1.33;;;;;;;20.73;45.41;101270.34;3584292;40;20214;-65
2022/05/25 09:40:51;;;;;;;2.50;1.15;;;;;;;20.77;44.31;101269.91;3585350;40;20052;-67
2022/05/25 09:43:24;;;;;;;3.25;1.33;;;;;;;20.54;43.96;101263.94;3583773;40;20060;-67
2022/05/25 09:45:58;;;;;;;1.50;1.20;;;;;;;20.33;43.31;101265.97;3586230;40;21396;-66
2022/05/25 09:48:24;;;;;;;3.67;1.00;;;;;;;20.19;44.95;101270.03;3585950;40;20067;-66
2022/05/25 09:51:05;;;;;;;2.92;1.08;;;;;;;20.02;42.60;101279.81;3588271;40;20076;-64
2022/05/25 09:53:51;;;;;;;4.05;0.88;;;;;;;19.68;43.16;101276.66;3584695;40;20322;-69
2022/05/25 09:56:30;;;;;;;3.00;0.95;;;;;;;19.59;43.96;101267.44;3584318;40;20087;-66
2022/05/25 09:59:06;;;;;;;4.43;1.00;;;;;;;19.55;43.26;101282.38;3584504;40;20049;-66
2022/05/25 10:01:48;;;;;;;1.73;0.77;;;;;;;19.95;43.42;101286.88;3584849;40;20122;-65
2022/05/25 10:04:51;;;;;;;5.97;0.80;;;;;;;20.28;42.59;101284.69;3584939;40;20276;-65
2022/05/25 10:07:30;;;;;;;3.00;0.90;;;;;;;20.66;41.08;101288.34;3585191;40;20052;-67
2022/05/25 10:10:04;;;;;;;6.35;0.95;;;;;;;20.73;40.70;101276.66;3584620;40;20052;-65
2022/05/25 10:12:39;;;;;;;1.92;1.00;;;;;;;20.68;42.18;101284.47;3585051;40;20087;-65
2022/05/25 10:15:09;;;;;;;3.03;1.05;;;;;;;20.43;41.27;101283.22;3585046;40;20410;-67
2022/05/25 10:17:46;;;;;;;1.90;0.90;;;;;;;20.58;42.10;101291.81;3583770;40;20056;-65
2022/05/25 10:20:28;;;;;;;4.63;0.73;;;;;;;20.88;41.67;101287.09;3581178;40;20056;-66
2022/05/25 10:23:11;;;;;;;1.65;0.80;;;;;;;21.18;40.74;101281.31;3584869;40;20084;-65
2022/05/25 10:25:48;;;;;;;0.63;0.45;;;;;;;21.14;40.94;101281.78;3584318;40;20056;-65
2022/05/25 10:28:35;;;;;;;1.67;0.65;;;;;;;21.19;39.50;101282.19;3584273;40;20365;-67
2022/05/25 10:37:07;;;;;;;2.85;0.90;;;;;;;21.66;38.36;101268.34;3571876;40;20352;-61
2022/05/25 10:39:54;;;;;;;1.98;1.02;;;;;;;21.46;38.59;101271.25;3574486;40;20052;-61
2022/05/25 10:42:45;;;;;;;2.58;0.88;;;;;;;21.16;37.79;101277.03;3565456;40;20303;-61
2022/05/25 10:45:19;;;;;;;2.55;0.85;;;;;;;20.74;39.65;101274.78;3552431;40;20073;-61
2022/05/25 10:47:50;;;;;;;;;;;;;;;20.49;40.77;101271.69;3564162;40;20061;-61
2022/05/25 10:50:34;;;;;;;2.70;0.90;;;;;;;20.32;41.31;101269.72;3565423;40;19937;-62
2022/05/25 10:53:09;;;;;;;2.00;0.98;;;;;;;20.22;41.19;101275.19;3564914;40;20059;-62
2022/05/25 10:56:05;;;;;;;1.60;0.52;;;;;;;20.31;40.05;101257.06;3564529;40;20064;-62
2022/05/25 10:59:27;;;;;;;2.47;0.93;;;;;;;20.35;38.79;101278.47;3548641;40;20057;-63
2022/05/25 11:02:36;;;;;;;1.38;0.77;;;;;;;20.14;39.41;101270.47;3552171;40;20115;-62
2022/05/25 11:05:40;;;;;;;0.88;0.40;;;;;;;20.49;40.02;101268.06;3561062;40;20061;-62
2022/05/25 11:08:43;;;;;;;1.42;0.60;;;;;;;20.37;39.61;101278.34;3564453;40;20089;-61
2022/05/25 11:11:29;;;;;;;3.10;0.90;;;;;;;20.27;39.20;101286.53;3563926;40;20123;-62
2022/05/25 11:14:26;;;;;;;4.57;0.82;;;;;;;20.63;39.35;101273.97;3567114;40;20057;-62
2022/05/25 11:17:51;;;;;;;1.73;0.93;;;;;;;20.55;39.49;101262.94;3564394;40;20037;-62
2022/05/25 11:20:50;;;;;;;2.15;0.80;;;;;;;20.95;39.22;101294.53;3532141;40;20061;-61
2022/05/25 11:23:38;;;;;;;2.78;0.98;;;;;;;21.10;38.92;101264.84;3564413;40;20053;-62
2022/05/25 11:26:45;;;;;;;2.08;0.73;;;;;;;21.03;38.88;101272.78;3563797;40;20122;-61
2022/05/25 11:29:31;;;;;;;4.25;1.00;;;;;;;21.42;38.04;101253.44;3561479;40;20056;-62
2022/05/25 11:32:45;;;;;;;2.53;0.70;;;;;;;21.86;37.68;101255.38;3567136;40;20064;-62
2022/05/25 11:36:03;;;;;;;3.00;1.05;;;;;;;22.26;38.80;101243.91;3559633;40;20111;-62
2022/05/25 11:39:33;;;;;;;3.33;0.90;;;;;;;22.89;37.41;101248.19;3563814;40;20092;-61
2022/05/25 11:42:27;;;;;;;1.95;1.08;;;;;;;23.14;35.85;101252.75;3542902;40;20085;-62
2022/05/25 11:45:47;;;;;;;4.57;1.02;;;;;;;23.29;35.64;101249.38;3563706;40;20057;-62
2022/05/25 11:48:58;;;;;;;4.65;1.23;;;;;;;22.81;36.31;101246.28;3566970;40;20127;-62
2022/05/25 11:51:29;;;;;;;3.03;1.10;;;;;;;22.82;36.52;101258.09;3564291;40;20421;-62
2022/05/25 11:54:13;;;;;;;3.28;1.10;;;;;;;22.77;37.21;101250.38;3563719;40;20057;-60
2022/05/25 11:56:56;;;;;;;4.85;0.98;;;;;;;22.89;35.28;101243.56;3563889;40;20053;-60
2022/05/25 12:00:16;;;;;;;4.90;0.77;;;;;;;22.63;35.02;101238.13;3564347;40;20085;-61
2022/05/25 12:02:59;;;;;;;2.03;0.80;;;;;;;22.07;36.38;101244.94;3562767;40;20100;-62
2022/05/25 12:05:56;;;;;;;2.17;0.90;;;;;;;21.70;37.09;101245.16;3566768;40;20124;-61
2022/05/25 12:08:43;;;;;;;2.72;0.90;;;;;;;21.87;38.11;101244.25;3562071;40;20049;-62
2022/05/25 12:11:52;;;;;;;2.40;1.10;;;;;;;21.97;37.08;101246.91;3560810;40;20057;-61
2022/05/25 12:15:02;;;;;;;3.65;0.95;;;;;;;21.82;36.99;101252.09;3563986;40;20081;-62
2022/05/25 12:17:54;;;;;;;5.00;1.10;;;;;;;21.56;37.41;101241.94;3564172;40;20122;-61
2022/05/25 12:21:01;;;;;;;3.40;0.93;;;;;;;21.35;37.83;101255.06;3552430;40;20089;-61
2022/05/25 12:23:35;;;;;;;4.35;1.17;;;;;;;21.07;38.52;101252.31;3553741;40;20056;-61
2022/05/25 12:26:14;;;;;;;1.98;0.88;;;;;;;20.77;39.64;101230.75;3564068;40;20115;-61